Fargo, ND

5:17 PM CDT on March 22, 2017 (GMT -0500)
Hector International | | Change Station

Elev 899 ft 46.92 °N, 96.81 °W | Updated 24 minutes ago

Overcast
Overcast
33 °F
Feels Like 20 °F
N
24
Wind Variable Wind from SSE
Gusts 34 mph

Today
High -- | Low -- °F
--% Chance of Precip.
Yesterday
High -- | Low -- °F
Precip. -- in
Pressure 30.24 in
Visibility 10.0 miles
Clouds Overcast 3300 ft
Windchill 20 °F
Dew Point 15 °F
Humidity 48%
Rainfall 0.00 in
Snow Depth Not available.
7:25 AM 7:43 PM
Waning Crescent, 29% visible
METAR KFAR 222153Z 15021G30KT 10SM OVC033 01/M09 A3020 RMK AO2 PK WND 16030/2128 UPE2054 SLP240 P0000 T00061094
Pressure 30.24 in
Visibility 10.0 miles
Clouds Overcast 3300 ft
Windchill 20 °F
Dew Point 15 °F
Humidity 48%
Rainfall 0.00 in
Snow Depth Not available.
7:25 AM 7:43 PM
Waning Crescent, 29% visible
METAR KFAR 222153Z 15021G30KT 10SM OVC033 01/M09 A3020 RMK AO2 PK WND 16030/2128 UPE2054 SLP240 P0000 T00061094

Get Severe Weather Alerts

Thanks for signing up!

Be on the lookout for a verification email in your inbox.

You'll start receiving the daily forecast at 8 AM.

×

10-Day Weather Forecast

Almanac

Astronomy

Mar. 22, 2017 Rise Set
Actual Time
Civil Twilight
Nautical Twilight
Astronomical Twilight
Moon
Length of Visible Light
Length of Day
Tomorrow will be .
, % of the Moon is Illuminated

Today's Extremes

State Highs State Lows

Community

WunderPhotos

Upload Photos

1,962,540 photos uploaded!

WunderBlog® & News

Nearby

Air Quality

  Air Quality AQ Index Pollutant
Not available.

Snow Depth

Station Depth Elevation

Earthquake Activity

City Distance Mag. Time & Date
Minimum magnitude displayed is 2.5.

Earthquake Activity

City Distance Mag. Time & Date
Minimum magnitude displayed is 2.5.

Coastal Water Temperatures

Place Temperature

Stations

Nearby Weather Stations

Station Location Temp. Windchill Dew Point Humidity Wind Precip. Elev Updated Type
                   

Watches & Warnings

There are currently no watches in effect.